Ana Sayfa
METAR-TAF:

METAR-TAF

Havaalanları :

Shageluk, Alaska, Amerika Birleşik Devletleri

Enlem: 62-41-32N, Boylam: 159-34-09W, yükseklik: 24 m

Güncel hava durumu gözlemi

Rapor saat 01:56 UTC de 2 saat ve 24 dakika önce yapıldı.
Rüzgar kuzey/kuzeydoğudan 8 kt
Sıcaklık -2°C
Nem 63%
Basınç 1024 hPa
Açık gökyüzü

METAR: PAHX 010156Z AUTO 02008KT CLR M02/M08 A3024 RMK AO2 SLP240 T10171083 PWINO FZRANO $

Saat: 20:20 (04:20 UTC)


TAF: eksik

4.000'den fazla havaalanı için hava durumu gözlemleri ve tahminleri (METAR ve TAF raporları).

Kullanılabilir istasyonlar harita üzerinde sarı ve kırmızı noktalarla gösterilir.

İstasyonun adını görmek için fareyi noktanın üzerinde gezdirin.

Sonrasında hava gözlem ve tahminlerini görmek için tıklayın.

Haritayı değiştirmek için: yaklaştırmak için siyah artı işaretli yeşil düğmeye ve uzaklaştırmak için de eksi işaretli düğmeye hızla tıklayın; bitişik haritalar için yeşil okları kullanın.


METAR-TAF: